Time;durP1;ratioP1;P1;durP2;ratioP2;P2;SDS_P1;SDS_P2;PMS_P1;PMS_P2;Temp;Humidity;BMP_temperature;BMP_pressure;BME280_temperature;BME280_humidity;BME280_pressure;Samples;Min_cycle;Max_cycle;Signal;HPM_P1;HPM_P2
2023/09/24 00:01:03;;;;;;;1.58;0.95;;;9.40;99.90;;;;;;5019742;28;20139;-83
2023/09/24 00:03:29;;;;;;;3.38;1.00;;;9.50;99.90;;;;;;5019882;28;20604;-83
2023/09/24 00:05:54;;;;;;;2.13;1.20;;;9.50;99.90;;;;;;5003348;28;20034;-83
2023/09/24 00:08:21;;;;;;;2.05;1.00;;;9.50;99.90;;;;;;5019642;28;20023;-83
2023/09/24 00:10:52;;;;;;;3.28;1.05;;;9.50;99.90;;;;;;5022919;28;20565;-83
2023/09/24 00:13:18;;;;;;;3.13;1.40;;;9.60;99.90;;;;;;5022871;28;20064;-83
2023/09/24 00:15:44;;;;;;;5.57;1.90;;;9.50;99.90;;;;;;5005720;28;20083;-83
2023/09/24 00:18:10;;;;;;;3.83;1.38;;;9.50;99.90;;;;;;5022016;28;20033;-83
2023/09/24 00:20:36;;;;;;;2.72;1.20;;;9.50;99.90;;;;;;5024486;28;20040;-83
2023/09/24 00:23:01;;;;;;;1.67;0.80;;;9.50;99.90;;;;;;5022942;28;20117;-84
2023/09/24 00:25:28;;;;;;;2.35;1.00;;;9.50;99.90;;;;;;5039450;28;20025;-83
2023/09/24 00:27:56;;;;;;;2.25;0.98;;;9.50;99.90;;;;;;5022829;28;20116;-83
2023/09/24 00:30:22;;;;;;;1.42;0.80;;;9.50;99.90;;;;;;5039282;28;20028;-83
2023/09/24 00:32:48;;;;;;;2.13;0.80;;;9.50;99.90;;;;;;5039130;28;20035;-83
2023/09/24 00:35:15;;;;;;;1.80;0.60;;;9.50;99.90;;;;;;5021896;28;20115;-83
2023/09/24 00:37:42;;;;;;;1.85;0.90;;;9.60;99.90;;;;;;5022328;28;20029;-84
2023/09/24 00:40:10;;;;;;;2.00;0.90;;;9.60;99.90;;;;;;5005892;28;20401;-83
2023/09/24 00:42:37;;;;;;;1.55;0.70;;;9.60;99.90;;;;;;5038598;28;20104;-83
2023/09/24 00:45:12;;;;;;;1.70;0.73;;;9.60;99.90;;;;;;5018190;28;20489;-84
2023/09/24 00:47:41;;;;;;;2.47;1.10;;;9.60;99.90;;;;;;5021692;28;20029;-83
2023/09/24 00:50:10;;;;;;;1.30;0.63;;;9.60;99.90;;;;;;5038377;28;20017;-83
2023/09/24 00:52:36;;;;;;;2.30;0.70;;;9.50;99.90;;;;;;5005525;28;20021;-83
2023/09/24 00:55:10;;;;;;;1.90;0.90;;;9.50;99.90;;;;;;5055872;28;20481;-83
2023/09/24 00:57:36;;;;;;;3.35;0.80;;;9.50;99.90;;;;;;5022973;28;20021;-84
2023/09/24 01:00:09;;;;;;;2.10;1.27;;;9.50;99.90;;;;;;5022214;28;20032;-83
2023/09/24 01:02:36;;;;;;;1.80;0.80;;;9.50;99.90;;;;;;5038161;28;20032;-83
2023/09/24 01:05:02;;;;;;;1.90;1.02;;;9.40;99.90;;;;;;5012198;28;20033;-83
2023/09/24 01:07:31;;;;;;;3.20;0.82;;;9.40;99.90;;;;;;5022635;28;20032;-83
2023/09/24 01:09:57;;;;;;;1.42;0.70;;;9.30;99.90;;;;;;5038897;28;20489;-83
2023/09/24 01:12:23;;;;;;;2.38;0.88;;;9.30;99.90;;;;;;5018823;28;20393;-84
2023/09/24 01:14:49;;;;;;;2.42;0.90;;;9.20;99.90;;;;;;5032749;28;20021;-83
2023/09/24 01:17:18;;;;;;;1.70;0.93;;;9.20;99.90;;;;;;5021622;28;20031;-83
2023/09/24 01:19:44;;;;;;;0.90;0.50;;;9.20;99.90;;;;;;5037916;28;20059;-84
2023/09/24 01:22:09;;;;;;;1.77;0.82;;;9.30;99.90;;;;;;5005742;28;20069;-83
2023/09/24 01:24:35;;;;;;;1.83;0.80;;;9.30;99.90;;;;;;5005726;28;20052;-84
2023/09/24 01:27:01;;;;;;;1.60;0.90;;;9.30;99.90;;;;;;5021823;28;20067;-83
2023/09/24 01:29:26;;;;;;;1.48;0.80;;;9.30;99.90;;;;;;5038574;28;20025;-83
2023/09/24 01:31:52;;;;;;;2.33;0.90;;;9.30;99.90;;;;;;5017813;28;20040;-83
2023/09/24 01:34:19;;;;;;;1.55;0.60;;;9.30;99.90;;;;;;5034553;28;20052;-83
2023/09/24 01:36:45;;;;;;;1.38;0.65;;;9.30;99.90;;;;;;5001896;28;20033;-84
2023/09/24 01:39:19;;;;;;;1.63;0.73;;;9.40;99.90;;;;;;4998594;28;20025;-84
2023/09/24 01:41:45;;;;;;;1.23;0.70;;;9.40;99.90;;;;;;5046542;28;20025;-83
2023/09/24 01:44:13;;;;;;;1.33;0.70;;;9.40;99.90;;;;;;5004870;28;20051;-83
2023/09/24 01:46:38;;;;;;;1.30;0.80;;;9.40;99.90;;;;;;5002313;28;20021;-83
2023/09/24 01:49:04;;;;;;;4.75;1.08;;;9.30;99.90;;;;;;5036068;28;20032;-84
2023/09/24 01:51:31;;;;;;;1.90;0.80;;;9.30;99.90;;;;;;5030133;28;20071;-83
2023/09/24 01:54:00;;;;;;;1.50;0.80;;;9.30;99.90;;;;;;5036804;28;20489;-83
2023/09/24 01:56:25;;;;;;;1.58;0.73;;;9.30;99.90;;;;;;5021433;28;20033;-83
2023/09/24 01:58:52;;;;;;;1.77;0.95;;;9.20;99.90;;;;;;5021408;28;20040;-83
2023/09/24 02:01:17;;;;;;;1.85;0.68;;;9.20;99.90;;;;;;5005183;28;20033;-84
2023/09/24 02:03:46;;;;;;;2.22;0.80;;;9.20;99.90;;;;;;5055484;28;20082;-83
2023/09/24 02:06:17;;;;;;;1.30;0.77;;;9.20;99.90;;;;;;5020440;28;20114;-84
2023/09/24 02:08:43;;;;;;;2.55;0.90;;;9.20;99.90;;;;;;5037283;28;20032;-84
2023/09/24 02:11:09;;;;;;;1.65;0.70;;;9.20;99.90;;;;;;5021051;28;20033;-83
2023/09/24 02:13:35;;;;;;;1.08;0.60;;;9.30;99.90;;;;;;5020885;28;20036;-83
2023/09/24 02:16:01;;;;;;;2.05;0.80;;;9.30;99.90;;;;;;5020097;28;20065;-83
2023/09/24 02:18:36;;;;;;;4.65;1.08;;;9.30;99.90;;;;;;5000071;28;20022;-83
2023/09/24 02:21:02;;;;;;;1.40;0.80;;;9.40;99.90;;;;;;4987414;28;20029;-83
2023/09/24 02:23:28;;;;;;;1.65;0.70;;;9.40;99.90;;;;;;5030789;28;20031;-83
2023/09/24 02:25:55;;;;;;;1.42;0.75;;;9.40;99.90;;;;;;5036223;28;20188;-83
2023/09/24 02:28:20;;;;;;;2.20;0.93;;;9.40;99.90;;;;;;5018143;28;20053;-84
2023/09/24 02:30:47;;;;;;;2.05;0.77;;;9.40;99.90;;;;;;5020599;28;20040;-83
2023/09/24 02:33:13;;;;;;;1.60;0.80;;;9.40;99.90;;;;;;5036783;28;20043;-83
2023/09/24 02:35:39;;;;;;;2.13;0.70;;;9.40;99.90;;;;;;5037662;28;20112;-83
2023/09/24 02:38:07;;;;;;;1.13;0.70;;;9.40;99.90;;;;;;5021312;28;20040;-84
2023/09/24 02:40:32;;;;;;;1.40;0.80;;;9.40;99.90;;;;;;5037217;28;20444;-83
2023/09/24 02:43:00;;;;;;;1.70;0.90;;;9.50;99.90;;;;;;5020390;28;20052;-83
2023/09/24 02:45:27;;;;;;;1.63;0.93;;;9.50;99.90;;;;;;5035354;28;20158;-83
2023/09/24 02:47:53;;;;;;;1.80;1.00;;;9.40;99.90;;;;;;5042937;28;20500;-83
2023/09/24 02:50:23;;;;;;;1.83;0.93;;;9.40;99.90;;;;;;5043485;28;20029;-83
2023/09/24 02:52:53;;;;;;;1.98;1.10;;;9.50;99.90;;;;;;5020912;28;20068;-83
2023/09/24 02:55:22;;;;;;;1.80;0.88;;;9.40;99.90;;;;;;5015980;28;20021;-83
2023/09/24 02:57:50;;;;;;;2.10;0.88;;;9.30;99.90;;;;;;5001216;28;20026;-83
2023/09/24 03:00:21;;;;;;;1.88;0.82;;;9.30;99.90;;;;;;5054046;28;20045;-83
2023/09/24 03:02:48;;;;;;;1.45;0.90;;;9.30;99.90;;;;;;5019721;28;20044;-83
2023/09/24 03:05:19;;;;;;;1.48;0.60;;;9.40;99.90;;;;;;5008307;28;20037;-83
2023/09/24 03:07:45;;;;;;;1.88;0.80;;;9.40;99.90;;;;;;5033073;28;20025;-83
2023/09/24 03:10:13;;;;;;;2.15;1.25;;;9.40;99.90;;;;;;5036040;28;20119;-83
2023/09/24 03:12:39;;;;;;;2.85;1.10;;;9.30;99.90;;;;;;5019963;28;20481;-83
2023/09/24 03:15:06;;;;;;;1.70;1.00;;;9.30;99.90;;;;;;5019879;28;20029;-83
2023/09/24 03:17:35;;;;;;;2.95;1.08;;;9.40;99.90;;;;;;5016145;28;20030;-83
2023/09/24 03:20:04;;;;;;;2.05;1.00;;;9.30;99.90;;;;;;5030481;28;20047;-83
2023/09/24 03:22:30;;;;;;;2.85;1.10;;;9.20;99.90;;;;;;5019330;28;20507;-83
2023/09/24 03:24:57;;;;;;;1.13;0.70;;;9.20;99.90;;;;;;5018543;28;20033;-83
2023/09/24 03:27:23;;;;;;;2.20;0.93;;;9.10;99.90;;;;;;5016021;28;20036;-83
2023/09/24 03:29:48;;;;;;;1.70;0.80;;;9.10;99.90;;;;;;5020083;28;20026;-83
2023/09/24 03:32:15;;;;;;;1.60;0.90;;;9.10;99.90;;;;;;5024915;28;20045;-83
2023/09/24 03:34:40;;;;;;;1.60;0.90;;;9.10;99.90;;;;;;5018843;28;20072;-83
2023/09/24 03:37:09;;;;;;;1.60;0.85;;;9.10;99.90;;;;;;5036023;28;20079;-83
2023/09/24 03:39:35;;;;;;;1.63;0.75;;;9.10;99.90;;;;;;5035919;28;20041;-83
2023/09/24 03:42:04;;;;;;;3.33;0.85;;;9.10;99.90;;;;;;5019465;28;20033;-83
2023/09/24 03:44:29;;;;;;;1.73;0.70;;;9.20;99.90;;;;;;5000638;28;20087;-83
2023/09/24 03:46:55;;;;;;;1.63;0.90;;;9.10;99.90;;;;;;5033809;28;20033;-83
2023/09/24 03:49:21;;;;;;;2.40;0.60;;;9.10;99.90;;;;;;5035945;28;20025;-83
2023/09/24 03:51:46;;;;;;;1.00;0.68;;;9.10;99.90;;;;;;5035798;28;20032;-83
2023/09/24 03:54:12;;;;;;;4.78;0.70;;;9.10;99.90;;;;;;5002823;28;20082;-83
2023/09/24 03:56:39;;;;;;;1.70;0.82;;;9.00;99.90;;;;;;5019103;28;20028;-83
2023/09/24 03:59:04;;;;;;;2.03;0.80;;;9.00;99.90;;;;;;5035796;28;20124;-83
2023/09/24 04:01:31;;;;;;;2.22;0.80;;;9.00;99.90;;;;;;5019095;28;20124;-83
2023/09/24 04:03:59;;;;;;;1.60;0.85;;;9.00;99.90;;;;;;5002770;28;20461;-83
2023/09/24 04:06:25;;;;;;;0.95;0.50;;;9.00;99.90;;;;;;5036035;28;20040;-83
2023/09/24 04:08:51;;;;;;;1.85;0.73;;;9.00;99.90;;;;;;5019014;28;20033;-83
2023/09/24 04:11:18;;;;;;;2.42;0.80;;;9.10;99.90;;;;;;5018859;28;20503;-83
2023/09/24 04:13:44;;;;;;;2.05;0.60;;;9.10;99.90;;;;;;5035280;28;20570;-83
2023/09/24 04:16:11;;;;;;;1.23;0.70;;;9.20;99.90;;;;;;5017564;28;20136;-83
2023/09/24 04:18:37;;;;;;;1.65;0.73;;;9.20;99.90;;;;;;5019268;28;20378;-83
2023/09/24 04:21:03;;;;;;;1.27;0.63;;;9.20;99.90;;;;;;5019181;28;20035;-83
2023/09/24 04:23:28;;;;;;;2.28;0.85;;;9.20;99.90;;;;;;5035246;28;20028;-83
2023/09/24 04:25:54;;;;;;;1.90;0.93;;;9.20;99.90;;;;;;5015546;28;20482;-83
2023/09/24 04:28:20;;;;;;;1.70;0.80;;;9.30;99.90;;;;;;5022012;28;20083;-83
2023/09/24 04:30:46;;;;;;;2.08;0.85;;;9.20;99.90;;;;;;5019097;28;20044;-83
2023/09/24 04:33:12;;;;;;;2.47;1.15;;;9.20;99.90;;;;;;5035217;28;20029;-83
2023/09/24 04:35:38;;;;;;;4.47;2.50;;;9.20;99.90;;;;;;5035101;28;20064;-83
2023/09/24 04:38:06;;;;;;;4.10;2.58;;;9.20;99.90;;;;;;5036287;28;20060;-83
2023/09/24 04:40:34;;;;;;;3.50;2.08;;;9.20;99.90;;;;;;5040055;28;20052;-83
2023/09/24 04:43:00;;;;;;;3.55;2.20;;;9.20;99.90;;;;;;5023617;28;20095;-82
2023/09/24 04:45:26;;;;;;;2.42;1.77;;;9.20;99.90;;;;;;5033007;28;20021;-82
2023/09/24 04:47:52;;;;;;;3.85;1.90;;;9.20;99.90;;;;;;5039201;28;20033;-82
2023/09/24 04:50:18;;;;;;;2.92;1.55;;;9.20;99.90;;;;;;5039118;28;20028;-82
2023/09/24 04:52:44;;;;;;;1.63;0.93;;;9.20;99.90;;;;;;5056917;28;20421;-86
2023/09/24 04:55:11;;;;;;;1.98;0.98;;;9.20;99.90;;;;;;5038651;28;20032;-86
2023/09/24 04:57:37;;;;;;;2.17;1.05;;;9.20;99.90;;;;;;5022290;28;20048;-85
2023/09/24 05:00:03;;;;;;;3.10;1.50;;;9.20;99.90;;;;;;5022119;28;20028;-86
2023/09/24 05:02:29;;;;;;;3.20;1.80;;;9.20;99.90;;;;;;5005713;28;20158;-86
2023/09/24 05:04:54;;;;;;;3.58;1.63;;;9.10;99.90;;;;;;5021039;28;20052;-86
2023/09/24 05:07:20;;;;;;;3.60;2.08;;;9.20;99.90;;;;;;5039044;28;20032;-86
2023/09/24 05:09:46;;;;;;;2.88;2.20;;;9.10;99.90;;;;;;5037970;28;20034;-86
2023/09/24 05:12:13;;;;;;;3.92;2.90;;;9.10;99.90;;;;;;5021005;28;20028;-85
2023/09/24 05:14:39;;;;;;;4.13;2.55;;;9.20;99.90;;;;;;5037759;28;20115;-85
2023/09/24 05:17:04;;;;;;;5.00;3.60;;;9.20;99.90;;;;;;5055179;28;20477;-85
2023/09/24 05:19:31;;;;;;;5.55;3.20;;;9.20;99.90;;;;;;5005042;28;20045;-86
2023/09/24 05:21:57;;;;;;;8.13;4.45;;;9.20;99.90;;;;;;5021442;28;20078;-85
2023/09/24 05:24:22;;;;;;;11.18;7.32;;;9.20;99.90;;;;;;5052203;28;20029;-85
2023/09/24 05:26:48;;;;;;;14.18;8.95;;;9.20;99.90;;;;;;5021850;28;20037;-86
2023/09/24 05:29:14;;;;;;;15.05;9.55;;;9.20;99.90;;;;;;5005198;28;20125;-85
2023/09/24 05:31:39;;;;;;;10.52;7.20;;;9.20;99.90;;;;;;5004833;28;20025;-85
2023/09/24 05:34:06;;;;;;;10.77;7.68;;;9.20;99.90;;;;;;4996172;28;20036;-85
2023/09/24 05:36:34;;;;;;;8.07;6.30;;;9.10;99.90;;;;;;5029474;28;20030;-85
2023/09/24 05:39:00;;;;;;;5.30;4.63;;;9.10;99.90;;;;;;4996528;28;20124;-84
2023/09/24 05:41:27;;;;;;;5.32;3.70;;;9.20;99.90;;;;;;5003333;28;20117;-85
2023/09/24 05:43:54;;;;;;;5.18;2.60;;;9.20;99.90;;;;;;5011709;28;20025;-85
2023/09/24 05:46:20;;;;;;;3.13;1.50;;;9.20;99.90;;;;;;5037522;28;20033;-84
2023/09/24 05:48:46;;;;;;;2.42;1.58;;;9.20;99.90;;;;;;5029763;28;20086;-84
2023/09/24 05:51:12;;;;;;;3.72;1.40;;;9.30;99.90;;;;;;5018991;28;20036;-86
2023/09/24 05:53:37;;;;;;;2.13;1.10;;;9.30;99.90;;;;;;5004635;28;20029;-85
2023/09/24 05:56:03;;;;;;;1.63;1.00;;;9.30;99.90;;;;;;5020336;28;20095;-85
2023/09/24 05:58:29;;;;;;;2.47;1.00;;;9.30;99.90;;;;;;5017100;28;20041;-85
2023/09/24 06:00:56;;;;;;;2.47;1.35;;;9.30;99.90;;;;;;5037733;28;20389;-85
2023/09/24 06:03:22;;;;;;;9.07;4.40;;;9.30;99.90;;;;;;5037302;28;20025;-84
2023/09/24 06:05:47;;;;;;;8.68;4.40;;;9.30;99.90;;;;;;5018542;28;20123;-85
2023/09/24 06:08:13;;;;;;;7.00;3.80;;;9.30;99.90;;;;;;5036967;28;20545;-85
2023/09/24 06:10:46;;;;;;;5.68;3.42;;;9.30;99.90;;;;;;5036508;28;20017;-85
2023/09/24 06:13:15;;;;;;;3.88;2.20;;;9.30;99.90;;;;;;5020926;28;20033;-85
2023/09/24 06:15:44;;;;;;;5.57;3.22;;;9.40;99.90;;;;;;5020114;28;20029;-86
2023/09/24 06:18:11;;;;;;;11.52;9.13;;;9.40;99.90;;;;;;5033493;28;20022;-85
2023/09/24 06:20:38;;;;;;;17.58;13.68;;;9.40;99.90;;;;;;4996801;28;20064;-85
2023/09/24 06:23:04;;;;;;;9.50;7.55;;;9.40;99.90;;;;;;5006634;28;20032;-85
2023/09/24 06:25:30;;;;;;;7.03;3.58;;;9.40;99.90;;;;;;5001692;28;20033;-85
2023/09/24 06:27:56;;;;;;;6.40;2.30;;;9.50;99.90;;;;;;5006530;28;20079;-86
2023/09/24 06:30:22;;;;;;;4.45;1.48;;;9.50;99.90;;;;;;5015917;28;20033;-85
2023/09/24 06:32:47;;;;;;;2.15;1.38;;;9.60;99.90;;;;;;5024527;28;20025;-86
2023/09/24 06:35:13;;;;;;;2.20;1.13;;;9.70;99.90;;;;;;5021124;28;20068;-87
2023/09/24 06:37:39;;;;;;;4.47;1.88;;;9.80;99.90;;;;;;5020056;28;20032;-87
2023/09/24 06:40:08;;;;;;;3.97;1.85;;;9.80;99.90;;;;;;5020539;28;20036;-87
2023/09/24 06:42:34;;;;;;;2.80;1.55;;;9.90;99.90;;;;;;5037035;28;20474;-86
2023/09/24 06:45:00;;;;;;;4.10;2.20;;;10.10;99.90;;;;;;5036689;28;20128;-86
2023/09/24 06:47:25;;;;;;;2.40;1.70;;;10.10;99.90;;;;;;5015963;28;20401;-86
2023/09/24 06:49:51;;;;;;;2.83;1.80;;;10.20;99.90;;;;;;5003275;28;20031;-86
2023/09/24 06:52:17;;;;;;;5.75;2.33;;;10.30;99.90;;;;;;5003790;28;20056;-86
2023/09/24 06:54:42;;;;;;;4.25;2.60;;;10.40;99.90;;;;;;5003205;28;20148;-86
2023/09/24 06:57:08;;;;;;;5.13;3.20;;;10.50;99.90;;;;;;5036643;28;22148;-85
2023/09/24 06:59:34;;;;;;;3.70;2.40;;;10.50;99.90;;;;;;5034392;28;20029;-86
2023/09/24 07:01:59;;;;;;;4.18;2.90;;;10.50;99.90;;;;;;5036338;28;20059;-86
2023/09/24 07:04:25;;;;;;;4.15;2.78;;;10.60;99.90;;;;;;5020297;28;20033;-86
2023/09/24 07:06:51;;;;;;;4.03;2.53;;;10.60;99.90;;;;;;5017635;28;20033;-85
2023/09/24 07:09:17;;;;;;;4.70;2.55;;;10.70;99.90;;;;;;5036214;28;20389;-86
2023/09/24 07:11:43;;;;;;;4.50;2.75;;;10.80;99.90;;;;;;5036318;28;20028;-85
2023/09/24 07:14:09;;;;;;;3.63;2.40;;;10.80;99.90;;;;;;5003615;28;20021;-86
2023/09/24 07:16:35;;;;;;;3.45;2.33;;;10.90;99.90;;;;;;5020410;28;20025;-85
2023/09/24 07:19:02;;;;;;;3.40;2.42;;;11.00;99.90;;;;;;5036854;28;20024;-85
2023/09/24 07:21:28;;;;;;;2.85;1.90;;;11.10;99.90;;;;;;5054691;28;20477;-85
2023/09/24 07:23:58;;;;;;;2.83;1.83;;;11.10;99.90;;;;;;5020321;28;20056;-85
2023/09/24 07:26:25;;;;;;;4.45;1.83;;;11.00;99.90;;;;;;5036034;28;20116;-86
2023/09/24 07:28:52;;;;;;;2.50;1.50;;;11.00;99.90;;;;;;5020388;28;20036;-86
2023/09/24 07:31:23;;;;;;;2.72;1.65;;;11.00;99.90;;;;;;5036861;28;20025;-85
2023/09/24 07:33:50;;;;;;;4.60;2.63;;;11.00;99.90;;;;;;5036088;28;20052;-86
2023/09/24 07:36:16;;;;;;;6.63;4.00;;;11.00;99.90;;;;;;5018418;28;20025;-85
2023/09/24 07:38:42;;;;;;;7.00;3.97;;;11.00;99.90;;;;;;5035514;28;20032;-84
2023/09/24 07:41:08;;;;;;;4.68;2.80;;;11.00;99.90;;;;;;5019110;28;20064;-86
2023/09/24 07:43:39;;;;;;;3.92;2.45;;;11.00;99.90;;;;;;5035621;28;20155;-85
2023/09/24 07:46:06;;;;;;;3.53;1.90;;;11.00;99.90;;;;;;5035766;28;20116;-85
2023/09/24 07:48:32;;;;;;;3.88;1.63;;;11.00;99.90;;;;;;5034897;28;20397;-86
2023/09/24 07:50:58;;;;;;;2.70;1.48;;;11.00;99.90;;;;;;5035752;28;20029;-86
2023/09/24 07:53:24;;;;;;;2.20;1.25;;;10.90;99.90;;;;;;5019276;28;20037;-85
2023/09/24 07:56:07;;;;;;;5.07;1.50;;;11.00;99.90;;;;;;5051848;28;20029;-85
2023/09/24 07:58:34;;;;;;;2.55;1.02;;;10.90;99.90;;;;;;5053168;28;20481;-85
2023/09/24 08:01:10;;;;;;;3.28;1.30;;;10.90;99.90;;;;;;5024825;28;20034;-86
2023/09/24 08:03:37;;;;;;;2.35;1.50;;;10.90;99.90;;;;;;4996528;28;20018;-86
2023/09/24 08:06:03;;;;;;;3.15;1.30;;;10.90;99.90;;;;;;5018614;28;20039;-85
2023/09/24 08:08:29;;;;;;;2.67;1.30;;;10.90;99.90;;;;;;5031096;28;20029;-86
2023/09/24 08:10:56;;;;;;;2.10;1.15;;;10.90;99.90;;;;;;5016174;28;20033;-87
2023/09/24 08:13:22;;;;;;;2.60;1.23;;;10.90;99.90;;;;;;5004541;28;20035;-86
2023/09/24 08:15:48;;;;;;;2.30;1.35;;;10.90;99.90;;;;;;5019090;28;20025;-86
2023/09/24 08:18:15;;;;;;;2.28;1.17;;;11.00;99.90;;;;;;5023010;28;20444;-86
2023/09/24 08:20:41;;;;;;;1.35;0.85;;;11.10;99.90;;;;;;5039699;28;20032;-86
2023/09/24 08:23:07;;;;;;;2.38;1.20;;;11.10;99.90;;;;;;5055983;28;20429;-85
2023/09/24 08:25:34;;;;;;;2.05;1.10;;;11.10;99.90;;;;;;5057411;28;20096;-85
2023/09/24 08:28:00;;;;;;;1.85;1.10;;;11.10;99.90;;;;;;5038683;28;20063;-84
2023/09/24 08:30:31;;;;;;;1.50;0.90;;;11.20;99.90;;;;;;5022802;28;20025;-85
2023/09/24 08:32:57;;;;;;;2.20;1.20;;;11.10;99.90;;;;;;5039487;28;20108;-85
2023/09/24 08:35:22;;;;;;;2.42;1.10;;;11.10;99.90;;;;;;5022673;28;20067;-86
2023/09/24 08:37:52;;;;;;;2.35;1.15;;;11.10;99.90;;;;;;5039255;28;20032;-85
2023/09/24 08:40:18;;;;;;;2.55;1.25;;;11.10;99.90;;;;;;5038782;28;20025;-85
2023/09/24 08:42:48;;;;;;;1.75;0.90;;;11.10;99.90;;;;;;5038291;28;20044;-85
2023/09/24 08:45:21;;;;;;;2.80;1.20;;;11.20;99.90;;;;;;5016878;28;20032;-85
2023/09/24 08:47:47;;;;;;;3.13;1.10;;;11.20;99.90;;;;;;5033507;28;20029;-85
2023/09/24 08:50:14;;;;;;;2.05;0.95;;;11.30;99.90;;;;;;5037149;28;20473;-85
2023/09/24 08:52:45;;;;;;;2.17;1.10;;;11.30;99.90;;;;;;5038083;28;20025;-85
2023/09/24 08:55:12;;;;;;;1.77;1.00;;;11.30;99.90;;;;;;5022686;28;20079;-86
2023/09/24 08:57:39;;;;;;;2.83;1.30;;;11.40;99.90;;;;;;5038662;28;20051;-86
2023/09/24 09:00:09;;;;;;;2.97;1.10;;;11.50;99.90;;;;;;5038641;28;20025;-85
2023/09/24 09:02:41;;;;;;;3.58;0.90;;;11.60;99.90;;;;;;5022382;28;20025;-86
2023/09/24 09:05:21;;;;;;;2.78;0.80;;;11.80;99.90;;;;;;5046806;28;20031;-85
2023/09/24 09:08:01;;;;;;;1.70;0.90;;;12.00;99.90;;;;;;5037962;28;20370;-85
2023/09/24 09:10:30;;;;;;;2.20;0.77;;;12.10;99.90;;;;;;5039246;28;20021;-85
2023/09/24 09:13:05;;;;;;;2.15;1.20;;;12.20;99.90;;;;;;5038921;28;20374;-85
2023/09/24 09:15:32;;;;;;;2.85;1.10;;;12.30;99.90;;;;;;5037563;28;20370;-84
2023/09/24 09:17:59;;;;;;;2.42;0.90;;;12.30;99.90;;;;;;5036348;28;20690;-86
2023/09/24 09:20:44;;;;;;;3.25;1.30;;;12.40;99.90;;;;;;5021671;28;20028;-85
2023/09/24 09:23:13;;;;;;;2.47;1.38;;;12.60;99.90;;;;;;5026606;28;20514;-85
2023/09/24 09:25:53;;;;;;;3.45;1.65;;;12.70;99.90;;;;;;5021710;28;20040;-86
2023/09/24 09:28:21;;;;;;;3.05;1.48;;;12.80;99.90;;;;;;5036397;28;20105;-85
2023/09/24 09:31:06;;;;;;;2.95;1.60;;;12.90;99.90;;;;;;5020185;28;20037;-86
2023/09/24 09:33:38;;;;;;;2.67;1.27;;;13.00;99.90;;;;;;5051430;28;20025;-85
2023/09/24 09:36:05;;;;;;;2.60;1.33;;;13.20;99.90;;;;;;5038648;28;20021;-85
2023/09/24 09:38:31;;;;;;;2.70;1.63;;;13.40;99.90;;;;;;5038110;28;20032;-85
2023/09/24 09:40:58;;;;;;;3.13;1.45;;;13.50;99.90;;;;;;5010201;28;20433;-85
2023/09/24 09:43:26;;;;;;;3.33;1.30;;;13.40;99.90;;;;;;5030294;28;20021;-84
2023/09/24 09:45:54;;;;;;;3.58;1.80;;;13.40;99.90;;;;;;5037722;28;20039;-84
2023/09/24 09:48:27;;;;;;;2.78;1.50;;;13.30;99.90;;;;;;5019741;28;20029;-85
2023/09/24 09:50:57;;;;;;;3.20;1.45;;;13.20;99.90;;;;;;5033863;28;20052;-84
2023/09/24 09:53:28;;;;;;;3.25;1.35;;;13.10;99.90;;;;;;5035372;28;20029;-85
2023/09/24 09:55:55;;;;;;;2.80;1.30;;;13.10;99.90;;;;;;5036986;28;20032;-85
2023/09/24 09:58:22;;;;;;;3.35;1.70;;;13.10;99.90;;;;;;5020609;28;20404;-86
2023/09/24 10:00:48;;;;;;;4.20;2.00;;;13.10;99.90;;;;;;5033284;28;20568;-85
2023/09/24 10:03:15;;;;;;;3.45;1.80;;;13.10;99.90;;;;;;5020879;28;20060;-85
2023/09/24 10:05:41;;;;;;;3.55;1.98;;;13.10;99.90;;;;;;5054557;28;20033;-85
2023/09/24 10:08:42;;;;;;;6.03;2.00;;;13.20;99.90;;;;;;5018746;28;20017;-84
2023/09/24 10:11:32;;;;;;;4.07;2.50;;;13.20;99.90;;;;;;5032733;28;20028;-86
2023/09/24 10:14:05;;;;;;;6.43;2.40;;;13.30;99.90;;;;;;5036220;28;20029;-86
2023/09/24 10:16:37;;;;;;;2.92;1.83;;;13.40;99.90;;;;;;5017235;28;20041;-86
2023/09/24 10:19:11;;;;;;;3.90;1.95;;;13.40;99.90;;;;;;5026242;28;20033;-85
2023/09/24 10:21:44;;;;;;;3.88;2.00;;;13.40;99.90;;;;;;5055052;28;20069;-85
2023/09/24 10:24:10;;;;;;;2.88;1.90;;;13.40;99.90;;;;;;5036316;28;20025;-86
2023/09/24 10:27:06;;;;;;;3.85;2.10;;;13.50;99.90;;;;;;5054785;28;20381;-85
2023/09/24 10:29:51;;;;;;;4.25;1.80;;;13.60;99.90;;;;;;5035106;28;20397;-85
2023/09/24 10:32:17;;;;;;;2.80;1.73;;;13.70;99.90;;;;;;5036810;28;20024;-85
2023/09/24 10:37:19;;;;;;;2.60;1.48;;;13.70;99.90;;;;;;5054852;28;20017;-85
2023/09/24 10:40:09;;;;;;;3.03;1.58;;;13.70;99.90;;;;;;5034994;28;20037;-85
2023/09/24 10:43:04;;;;;;;3.05;1.38;;;13.70;99.90;;;;;;5044758;28;20013;-85
2023/09/24 10:45:30;;;;;;;4.18;1.40;;;13.80;99.90;;;;;;5055109;28;20503;-85
2023/09/24 10:48:02;;;;;;;3.33;1.27;;;13.90;99.90;;;;;;5036687;28;20039;-85
2023/09/24 10:50:28;;;;;;;2.70;1.35;;;14.00;99.90;;;;;;5037224;28;20028;-85
2023/09/24 10:53:01;;;;;;;2.42;1.10;;;14.10;99.90;;;;;;5021394;28;20035;-86
2023/09/24 10:55:27;;;;;;;2.25;1.30;;;14.20;99.90;;;;;;5038907;28;20049;-86
2023/09/24 10:57:54;;;;;;;1.98;0.90;;;14.20;99.90;;;;;;5037093;28;20025;-85
2023/09/24 11:00:21;;;;;;;2.67;1.30;;;14.20;99.90;;;;;;5021107;28;20500;-85
2023/09/24 11:03:14;;;;;;;1.92;0.90;;;14.20;99.90;;;;;;5020743;28;20029;-86
2023/09/24 11:05:44;;;;;;;3.67;1.38;;;14.20;99.90;;;;;;5033557;28;20090;-86
2023/09/24 11:08:13;;;;;;;3.10;1.00;;;14.30;99.90;;;;;;5054381;28;20389;-85
2023/09/24 11:10:39;;;;;;;2.22;1.00;;;14.30;99.90;;;;;;5054759;28;20021;-86
2023/09/24 11:13:06;;;;;;;4.45;1.42;;;14.40;99.90;;;;;;5021185;28;20031;-85
2023/09/24 11:15:34;;;;;;;2.17;1.05;;;14.40;99.90;;;;;;5008555;28;20076;-85
2023/09/24 11:18:00;;;;;;;2.55;1.00;;;14.40;99.90;;;;;;5000769;28;20030;-85
2023/09/24 11:20:30;;;;;;;2.50;1.00;;;14.40;99.90;;;;;;5035037;28;20410;-86
2023/09/24 11:23:11;;;;;;;3.33;1.30;;;14.40;99.90;;;;;;5001899;28;20025;-85
2023/09/24 11:25:37;;;;;;;2.70;1.07;;;14.40;99.90;;;;;;5036442;28;20029;-85
2023/09/24 11:28:04;;;;;;;2.78;1.00;;;14.40;99.90;;;;;;5036660;28;20036;-85
2023/09/24 11:30:40;;;;;;;2.50;0.98;;;14.40;99.90;;;;;;5053995;28;20017;-85
2023/09/24 11:33:18;;;;;;;6.90;1.15;;;14.40;99.90;;;;;;5036685;28;20024;-85
2023/09/24 11:35:45;;;;;;;2.47;1.00;;;14.30;99.90;;;;;;5054020;28;20047;-85
2023/09/24 11:38:11;;;;;;;2.22;0.90;;;14.30;99.90;;;;;;5036413;28;20370;-85
2023/09/24 11:40:39;;;;;;;3.08;0.82;;;14.30;99.90;;;;;;5033403;28;20045;-85
2023/09/24 11:43:06;;;;;;;3.80;1.20;;;14.30;99.90;;;;;;5036658;28;20032;-85
2023/09/24 11:45:47;;;;;;;3.10;1.40;;;14.20;99.90;;;;;;5020239;28;20052;-85
2023/09/24 11:48:25;;;;;;;3.00;1.05;;;14.20;99.90;;;;;;5054594;28;20389;-85
2023/09/24 11:50:53;;;;;;;2.85;0.80;;;14.20;99.90;;;;;;5055471;28;20049;-85
2023/09/24 11:53:21;;;;;;;2.25;0.98;;;14.30;99.90;;;;;;5036697;28;20439;-85
2023/09/24 11:55:59;;;;;;;2.45;0.80;;;14.40;99.90;;;;;;5020174;28;20385;-85
2023/09/24 11:58:26;;;;;;;3.53;0.90;;;14.40;99.90;;;;;;5014666;28;20025;-85
2023/09/24 12:00:53;;;;;;;3.53;0.90;;;14.50;99.90;;;;;;5020621;28;20048;-85
2023/09/24 12:03:22;;;;;;;2.55;0.80;;;14.40;99.90;;;;;;5037720;28;20028;-85
2023/09/24 12:05:49;;;;;;;2.80;1.05;;;14.40;99.90;;;;;;5037240;28;20037;-85
2023/09/24 12:08:15;;;;;;;3.38;1.27;;;14.40;99.90;;;;;;5020424;28;20021;-85
2023/09/24 12:10:43;;;;;;;4.10;1.17;;;14.40;99.90;;;;;;5037722;28;20051;-86
2023/09/24 12:13:10;;;;;;;2.17;1.00;;;14.40;99.90;;;;;;5037504;28;20508;-85
2023/09/24 12:15:36;;;;;;;2.83;1.20;;;14.30;99.90;;;;;;5020642;28;20055;-85
2023/09/24 12:18:05;;;;;;;4.47;1.17;;;14.30;99.90;;;;;;5054599;28;20492;-85
2023/09/24 12:20:32;;;;;;;2.88;1.08;;;14.30;99.90;;;;;;5037249;28;20029;-85
2023/09/24 12:22:59;;;;;;;3.08;1.08;;;14.20;99.90;;;;;;5036800;28;20028;-85
2023/09/24 12:25:25;;;;;;;4.35;1.10;;;14.20;99.90;;;;;;5020943;28;20036;-85
2023/09/24 12:27:51;;;;;;;2.05;0.73;;;14.10;99.90;;;;;;5021146;28;20029;-85
2023/09/24 12:30:17;;;;;;;2.88;1.00;;;14.10;99.90;;;;;;5020626;28;20025;-85
2023/09/24 12:32:43;;;;;;;2.45;1.00;;;14.00;99.90;;;;;;5004813;28;20170;-85
2023/09/24 12:35:11;;;;;;;3.95;1.30;;;14.00;99.90;;;;;;5020263;28;20025;-85
2023/09/24 12:37:38;;;;;;;3.60;1.00;;;14.00;99.90;;;;;;5036722;28;20032;-84
2023/09/24 12:40:07;;;;;;;2.40;0.80;;;14.00;99.90;;;;;;5022070;28;20029;-84
2023/09/24 12:42:39;;;;;;;4.55;1.17;;;14.10;99.90;;;;;;5053365;28;20079;-85
2023/09/24 12:45:06;;;;;;;3.00;0.90;;;14.00;99.90;;;;;;5020960;28;20031;-85
2023/09/24 12:47:33;;;;;;;1.90;0.85;;;14.10;99.90;;;;;;5036498;28;20017;-85
2023/09/24 12:50:01;;;;;;;3.05;0.90;;;14.20;99.90;;;;;;5054690;28;20528;-85
2023/09/24 12:52:34;;;;;;;2.35;0.68;;;14.20;99.90;;;;;;5054354;28;20036;-85
2023/09/24 12:55:01;;;;;;;2.92;0.95;;;14.30;99.90;;;;;;5037295;28;20028;-85
2023/09/24 12:57:27;;;;;;;2.33;1.00;;;14.30;99.90;;;;;;5036825;28;20033;-86
2023/09/24 12:59:52;;;;;;;2.50;0.88;;;14.40;99.90;;;;;;5022461;28;20445;-85